Time;durP1;ratioP1;P1;durP2;ratioP2;P2;SDS_P1;SDS_P2;PMS_P1;PMS_P2;Temp;Humidity;BMP_temperature;BMP_pressure;BME280_temperature;BME280_humidity;BME280_pressure;Samples;Min_cycle;Max_cycle;Signal;HPM_P1;HPM_P2
2021/12/18 00:00:34;;;;;;;40.40;21.20;;;8.70;69.30;;;;;;5036020;28;20494;-76
2021/12/18 00:03:00;;;;;;;40.70;19.20;;;8.60;72.90;;;;;;5034955;28;20775;-75
2021/12/18 00:05:25;;;;;;;41.92;18.85;;;8.70;71.40;;;;;;5035356;28;20395;-75
2021/12/18 00:07:51;;;;;;;38.33;18.67;;;8.60;74.40;;;;;;5034654;28;20513;-75
2021/12/18 00:10:20;;;;;;;36.17;18.33;;;9.10;68.20;;;;;;5032422;28;20798;-74
2021/12/18 00:12:50;;;;;;;40.47;19.20;;;8.90;68.30;;;;;;5031435;28;20379;-75
2021/12/18 00:15:20;;;;;;;37.20;18.70;;;8.80;70.80;;;;;;5032058;28;20765;-75
2021/12/18 00:17:46;;;;;;;37.25;18.42;;;8.80;71.40;;;;;;5032118;28;20506;-75
2021/12/18 00:20:14;;;;;;;37.95;18.55;;;8.70;71.70;;;;;;5033318;28;20520;-76
2021/12/18 00:22:40;;;;;;;37.08;18.13;;;8.60;73.60;;;;;;5017681;28;20389;-75
2021/12/18 00:25:06;;;;;;;38.80;18.45;;;8.90;71.80;;;;;;5032370;28;20737;-76
2021/12/18 00:27:32;;;;;;;35.20;17.90;;;8.90;70.30;;;;;;5033833;28;20387;-77
2021/12/18 00:29:57;;;;;;;35.63;17.20;;;9.10;69.10;;;;;;5033559;28;20398;-75
2021/12/18 00:32:23;;;;;;;35.07;17.90;;;9.10;68.20;;;;;;5031836;28;20466;-75
2021/12/18 00:34:49;;;;;;;34.35;17.20;;;8.90;69.60;;;;;;5018783;28;20420;-75
2021/12/18 00:37:14;;;;;;;35.65;17.77;;;8.90;68.60;;;;;;5031361;28;20391;-75
2021/12/18 00:39:48;;;;;;;39.85;19.05;;;8.90;69.60;;;;;;5032435;28;20545;-74
2021/12/18 00:42:40;;;;;;;35.55;18.10;;;8.80;72.80;;;;;;5032588;28;20426;-74
2021/12/18 00:45:08;;;;;;;44.20;20.05;;;8.80;72.00;;;;;;5032394;28;20460;-74
2021/12/18 00:47:34;;;;;;;39.35;19.50;;;8.70;74.60;;;;;;5034725;28;20433;-75
2021/12/18 00:49:59;;;;;;;39.03;19.20;;;8.80;74.00;;;;;;5050757;28;20395;-75
2021/12/18 00:52:25;;;;;;;40.87;19.30;;;9.10;69.60;;;;;;5047860;28;20404;-74
2021/12/18 00:54:51;;;;;;;38.60;19.10;;;9.00;68.70;;;;;;5035898;28;20410;-77
2021/12/18 00:57:17;;;;;;;39.80;19.53;;;8.80;71.80;;;;;;5033103;28;20890;-74
2021/12/18 00:59:43;;;;;;;42.15;20.27;;;8.90;71.80;;;;;;5024233;28;20397;-73
2021/12/18 01:02:09;;;;;;;46.88;20.17;;;8.80;73.20;;;;;;5031471;28;20955;-75
2021/12/18 01:04:34;;;;;;;42.20;19.53;;;8.90;71.80;;;;;;5031552;28;20748;-74
2021/12/18 01:07:00;;;;;;;43.33;20.43;;;9.10;69.50;;;;;;5032643;28;20542;-74
2021/12/18 01:10:24;;;;;;;41.53;19.83;;;9.10;69.40;;;;;;5032686;28;20386;-72
2021/12/18 01:12:11;;;;;;;48.85;22.08;;;8.70;75.00;;;;;;5031406;28;20438;-73
2021/12/18 01:24:50;;;;;;;49.03;21.83;;;9.00;73.60;;;;;;5031515;28;20807;-75
2021/12/18 01:27:16;;;;;;;56.22;23.38;;;9.20;70.30;;;;;;5031336;28;20387;-73
2021/12/18 01:29:42;;;;;;;50.20;22.63;;;9.20;69.00;;;;;;5031248;28;20808;-74
2021/12/18 01:32:08;;;;;;;50.27;23.27;;;9.30;67.10;;;;;;5032070;28;20856;-74
2021/12/18 01:34:34;;;;;;;46.92;21.75;;;9.30;66.00;;;;;;5032134;28;20411;-73
2021/12/18 01:37:00;;;;;;;51.95;22.98;;;9.20;68.80;;;;;;5036690;28;20410;-72
2021/12/18 01:39:26;;;;;;;51.13;23.42;;;9.20;68.80;;;;;;5036543;28;20387;-74
2021/12/18 01:52:39;;;;;;;54.17;24.27;;;9.00;73.50;;;;;;5030757;28;20489;-73
2021/12/18 01:55:06;;;;;;;54.75;24.55;;;8.80;74.80;;;;;;5030099;28;20411;-73
2021/12/18 01:57:32;;;;;;;57.45;24.38;;;8.90;75.70;;;;;;5030096;28;20481;-74
2021/12/18 01:59:58;;;;;;;52.90;23.77;;;8.90;76.60;;;;;;5020937;28;20480;-73
2021/12/18 02:02:23;;;;;;;53.42;24.75;;;9.10;72.80;;;;;;5030867;28;20448;-73
2021/12/18 02:04:49;;;;;;;50.80;23.73;;;9.00;73.80;;;;;;5031996;28;20426;-73
2021/12/18 02:07:16;;;;;;;56.47;24.00;;;8.80;75.90;;;;;;5030799;28;20391;-72
2021/12/18 02:12:18;;;;;;;61.00;27.38;;;8.60;79.20;;;;;;5022692;28;20731;-72
2021/12/18 02:22:51;;;;;;;57.80;27.40;;;8.80;79.00;;;;;;5031650;28;20421;-72
2021/12/18 02:25:17;;;;;;;54.77;26.13;;;8.60;79.80;;;;;;5030868;28;20434;-73
2021/12/18 02:27:43;;;;;;;59.60;26.23;;;8.80;76.60;;;;;;5031108;28;20784;-73
2021/12/18 02:30:11;;;;;;;55.38;25.83;;;8.90;75.90;;;;;;5017656;28;20769;-73
2021/12/18 02:32:36;;;;;;;61.75;26.52;;;8.90;75.60;;;;;;5011788;28;20801;-73
2021/12/18 02:35:05;;;;;;;53.40;25.80;;;8.80;77.20;;;;;;5010508;28;20495;-73
2021/12/18 02:37:38;;;;;;;50.28;23.75;;;8.90;76.40;;;;;;5013852;28;20378;-73
2021/12/18 02:43:04;;;;;;;54.60;24.40;;;9.00;74.10;;;;;;5005566;28;20383;-73
2021/12/18 02:45:30;;;;;;;51.78;25.65;;;8.90;76.80;;;;;;5034535;28;20756;-73
2021/12/18 02:47:58;;;;;;;55.67;26.17;;;8.80;77.90;;;;;;5034333;28;20394;-73
2021/12/18 02:50:23;;;;;;;58.72;27.40;;;8.50;82.80;;;;;;5017510;28;20452;-73
2021/12/18 02:52:49;;;;;;;57.90;26.55;;;8.40;84.50;;;;;;5032572;28;20458;-73
2021/12/18 02:55:15;;;;;;;59.47;27.05;;;8.30;87.50;;;;;;5033694;28;20406;-73
2021/12/18 02:57:40;;;;;;;62.25;27.95;;;8.20;89.80;;;;;;5032912;28;20395;-73
2021/12/18 03:00:06;;;;;;;54.33;25.85;;;8.20;89.40;;;;;;5021871;28;20440;-72
2021/12/18 03:02:37;;;;;;;59.20;26.45;;;8.40;87.80;;;;;;5014705;28;20404;-73
2021/12/18 03:05:07;;;;;;;57.00;25.70;;;8.40;88.00;;;;;;5014440;28;20385;-73
2021/12/18 03:07:32;;;;;;;57.05;26.38;;;8.50;88.50;;;;;;5014828;28;20385;-74
2021/12/18 03:26:04;;;;;;;48.97;24.15;;;8.40;88.00;;;;;;5033600;28;20391;-73
2021/12/18 03:28:30;;;;;;;52.97;24.98;;;8.40;87.90;;;;;;5033214;28;20395;-73
2021/12/18 03:30:56;;;;;;;48.33;23.40;;;8.40;85.50;;;;;;5033921;28;20383;-75
2021/12/18 03:33:24;;;;;;;47.20;22.90;;;8.40;87.40;;;;;;5033952;28;20868;-73
2021/12/18 03:35:51;;;;;;;49.65;24.58;;;8.30;88.60;;;;;;5034424;28;20430;-73
2021/12/18 03:38:16;;;;;;;47.80;22.90;;;8.40;88.50;;;;;;5034156;28;20454;-73
2021/12/18 03:40:42;;;;;;;47.03;22.77;;;8.50;88.40;;;;;;5033695;28;20422;-73
2021/12/18 03:43:07;;;;;;;51.60;25.10;;;8.60;84.50;;;;;;5016974;28;20430;-73
2021/12/18 03:45:33;;;;;;;51.75;24.33;;;8.40;86.00;;;;;;5032032;28;20425;-72
2021/12/18 03:47:59;;;;;;;51.17;24.17;;;8.60;86.00;;;;;;5033783;28;20397;-73
2021/12/18 03:50:24;;;;;;;54.90;24.53;;;8.80;82.70;;;;;;5017533;28;20428;-73
2021/12/18 03:52:50;;;;;;;49.10;22.57;;;8.90;79.50;;;;;;5030652;28;20399;-73
2021/12/18 03:55:16;;;;;;;49.20;24.00;;;9.10;76.40;;;;;;5034065;28;20406;-73
2021/12/18 03:57:42;;;;;;;49.00;23.52;;;9.20;73.80;;;;;;5034302;28;20768;-73
2021/12/18 04:00:12;;;;;;;51.57;24.77;;;9.30;72.00;;;;;;5033904;28;20394;-73
2021/12/18 04:02:38;;;;;;;52.33;25.43;;;9.10;72.80;;;;;;5033944;28;20776;-72
2021/12/18 04:05:04;;;;;;;50.03;25.40;;;9.00;75.20;;;;;;5032014;28;20403;-73
2021/12/18 04:07:29;;;;;;;54.42;25.23;;;8.90;76.40;;;;;;5032076;28;20406;-73
2021/12/18 04:09:55;;;;;;;50.37;23.83;;;8.90;78.40;;;;;;5032933;28;20387;-73
2021/12/18 04:12:21;;;;;;;53.10;25.27;;;9.30;73.90;;;;;;5024488;28;20396;-72
2021/12/18 04:14:46;;;;;;;54.80;25.00;;;9.40;69.80;;;;;;5013147;28;20412;-73
2021/12/18 04:17:12;;;;;;;55.73;27.27;;;9.40;68.90;;;;;;5020901;28;20409;-72
2021/12/18 04:19:37;;;;;;;65.93;28.80;;;9.30;71.00;;;;;;5034701;28;20391;-72
2021/12/18 04:22:03;;;;;;;59.90;27.10;;;9.20;72.80;;;;;;5036330;28;20748;-73
2021/12/18 04:24:29;;;;;;;64.00;28.63;;;9.10;74.70;;;;;;5026911;28;20396;-73
2021/12/18 04:26:55;;;;;;;72.18;29.83;;;9.10;76.90;;;;;;5023323;28;20385;-73
2021/12/18 04:29:21;;;;;;;67.47;28.85;;;9.10;78.00;;;;;;5026282;28;20441;-74
2021/12/18 04:31:47;;;;;;;69.13;29.73;;;9.10;77.80;;;;;;5034807;28;20387;-73
2021/12/18 04:34:12;;;;;;;73.20;31.20;;;9.00;78.00;;;;;;5032628;28;20407;-73
2021/12/18 04:36:38;;;;;;;73.43;31.30;;;9.10;77.60;;;;;;5033010;28;20772;-73
2021/12/18 04:39:04;;;;;;;63.63;28.23;;;9.00;78.00;;;;;;5031967;28;20486;-73
2021/12/18 04:41:43;;;;;;;68.17;27.77;;;9.10;76.40;;;;;;5030812;28;20840;-73
2021/12/18 04:44:09;;;;;;;68.10;28.85;;;9.10;76.00;;;;;;5016947;28;20383;-73
2021/12/18 04:46:35;;;;;;;62.03;28.10;;;9.00;77.80;;;;;;5033311;28;20383;-72
2021/12/18 04:49:01;;;;;;;68.05;30.50;;;8.90;77.90;;;;;;5032900;28;20413;-73
2021/12/18 04:51:27;;;;;;;57.53;26.92;;;8.60;82.40;;;;;;5032423;28;20453;-73
2021/12/18 04:53:52;;;;;;;67.63;27.45;;;8.80;83.60;;;;;;5032036;28;20465;-73
2021/12/18 04:56:18;;;;;;;61.13;26.65;;;9.00;76.40;;;;;;5032444;28;20468;-73
2021/12/18 04:58:43;;;;;;;52.53;24.10;;;9.10;74.70;;;;;;5032065;28;20390;-73
2021/12/18 05:01:09;;;;;;;58.10;26.10;;;9.10;75.10;;;;;;5031558;28;20476;-74
2021/12/18 05:03:37;;;;;;;53.22;24.92;;;9.00;75.10;;;;;;5031327;28;20534;-73
2021/12/18 05:06:03;;;;;;;54.03;25.27;;;9.00;74.80;;;;;;5031871;28;20470;-73
2021/12/18 05:08:29;;;;;;;52.08;25.27;;;8.90;78.40;;;;;;5029956;28;20406;-73
2021/12/18 05:10:54;;;;;;;57.67;27.10;;;8.60;80.70;;;;;;5032072;28;20386;-73
2021/12/18 05:13:20;;;;;;;55.77;26.23;;;8.50;84.00;;;;;;5014732;28;20397;-72
2021/12/18 05:15:46;;;;;;;64.53;28.77;;;8.40;86.10;;;;;;5023955;28;20446;-72
2021/12/18 05:18:12;;;;;;;63.80;26.80;;;8.30;88.00;;;;;;5030849;28;20509;-72
2021/12/18 05:20:37;;;;;;;54.10;25.70;;;8.30;88.50;;;;;;5031682;28;20383;-72
2021/12/18 05:23:03;;;;;;;48.67;24.98;;;8.40;86.90;;;;;;5031122;28;20400;-72
2021/12/18 05:25:29;;;;;;;48.67;24.90;;;8.40;87.90;;;;;;5031463;28;20795;-71
2021/12/18 05:27:54;;;;;;;40.33;21.95;;;8.50;86.80;;;;;;5029436;28;20497;-72
2021/12/18 05:30:20;;;;;;;52.17;23.87;;;8.80;79.90;;;;;;5031145;28;20403;-72
2021/12/18 05:32:46;;;;;;;46.87;24.07;;;8.60;80.90;;;;;;5031404;28;20714;-72
2021/12/18 05:35:14;;;;;;;45.37;23.07;;;8.60;83.70;;;;;;5031474;28;20407;-73
2021/12/18 05:37:51;;;;;;;43.47;23.00;;;8.90;79.60;;;;;;5030417;28;20382;-73
2021/12/18 05:40:20;;;;;;;42.08;21.85;;;9.00;75.80;;;;;;5011648;28;20703;-73
2021/12/18 05:42:47;;;;;;;40.10;21.70;;;9.00;74.30;;;;;;5017596;28;20398;-73
2021/12/18 05:45:13;;;;;;;40.97;21.67;;;9.00;75.80;;;;;;5028260;28;20455;-73
2021/12/18 05:47:39;;;;;;;43.50;22.88;;;8.80;78.10;;;;;;5012737;28;20391;-71
2021/12/18 05:50:06;;;;;;;41.85;21.25;;;9.00;75.70;;;;;;5025626;28;20377;-71
2021/12/18 05:52:32;;;;;;;42.43;21.33;;;8.90;76.20;;;;;;5041033;28;20465;-70
2021/12/18 05:54:58;;;;;;;41.85;20.15;;;8.70;78.70;;;;;;5046951;28;20410;-70
2021/12/18 05:57:23;;;;;;;40.72;19.73;;;8.70;80.30;;;;;;5038818;28;20399;-70
2021/12/18 05:59:49;;;;;;;38.60;19.58;;;8.80;79.50;;;;;;5033616;28;20471;-71
2021/12/18 06:02:15;;;;;;;31.60;16.52;;;8.60;79.90;;;;;;5030437;28;20399;-71
2021/12/18 06:04:42;;;;;;;35.00;16.70;;;8.70;80.10;;;;;;5030964;28;20434;-71
2021/12/18 06:07:16;;;;;;;33.88;17.23;;;8.70;78.70;;;;;;5024078;28;20393;-71
2021/12/18 06:09:41;;;;;;;34.33;17.25;;;8.80;76.90;;;;;;5014290;28;20391;-70
2021/12/18 06:12:08;;;;;;;37.60;19.17;;;8.60;79.60;;;;;;5030605;28;20493;-70
2021/12/18 06:14:33;;;;;;;38.60;18.45;;;8.40;83.30;;;;;;5030730;28;20391;-70
2021/12/18 06:16:59;;;;;;;36.10;18.20;;;8.30;87.80;;;;;;5030816;28;20417;-71
2021/12/18 06:19:24;;;;;;;41.00;19.00;;;8.30;87.80;;;;;;5030003;28;20402;-70
2021/12/18 06:21:50;;;;;;;40.38;18.80;;;8.30;90.20;;;;;;5030944;28;20391;-71
2021/12/18 06:24:15;;;;;;;36.15;17.95;;;8.20;91.40;;;;;;5030329;28;20399;-71
2021/12/18 06:26:42;;;;;;;32.65;17.30;;;8.50;88.80;;;;;;5031235;28;20394;-70
2021/12/18 06:29:08;;;;;;;41.67;19.00;;;8.40;89.20;;;;;;5030764;28;20390;-72
2021/12/18 06:31:36;;;;;;;37.22;18.02;;;8.30;91.60;;;;;;5021091;28;20400;-71
2021/12/18 06:34:02;;;;;;;38.25;18.20;;;8.20;92.90;;;;;;5010744;28;20392;-71
2021/12/18 06:36:28;;;;;;;37.85;18.08;;;8.20;94.40;;;;;;5010656;28;20401;-71
2021/12/18 06:38:53;;;;;;;36.33;17.37;;;8.20;95.20;;;;;;5025584;28;20381;-71
2021/12/18 06:41:19;;;;;;;37.53;16.70;;;8.10;95.10;;;;;;5023147;28;20495;-71
2021/12/18 06:43:44;;;;;;;32.83;16.93;;;8.10;96.40;;;;;;5010448;28;20399;-72
2021/12/18 06:46:10;;;;;;;33.87;16.80;;;8.10;96.30;;;;;;5030153;28;20434;-72
2021/12/18 06:48:35;;;;;;;35.67;15.60;;;8.10;97.50;;;;;;5027177;28;20869;-71
2021/12/18 06:51:02;;;;;;;35.43;17.07;;;8.10;97.10;;;;;;5010825;28;20933;-71
2021/12/18 06:53:28;;;;;;;36.40;16.38;;;8.10;98.30;;;;;;5029545;28;20405;-72
2021/12/18 06:55:53;;;;;;;36.10;16.80;;;8.10;97.90;;;;;;5031466;28;20410;-76
2021/12/18 06:58:19;;;;;;;36.72;16.67;;;8.00;99.30;;;;;;5030579;28;20390;-74
2021/12/18 07:00:45;;;;;;;36.17;15.82;;;8.00;99.90;;;;;;5030648;28;20445;-73
2021/12/18 07:03:12;;;;;;;33.53;15.65;;;8.10;99.90;;;;;;5027737;28;20706;-74
2021/12/18 07:05:37;;;;;;;33.58;14.63;;;8.20;98.20;;;;;;5013504;28;20892;-73
2021/12/18 07:08:03;;;;;;;31.55;14.57;;;8.30;95.60;;;;;;5030681;28;20395;-73
2021/12/18 07:10:31;;;;;;;31.13;14.50;;;8.30;94.30;;;;;;5013296;28;20400;-74
2021/12/18 07:12:57;;;;;;;35.00;15.38;;;8.40;95.60;;;;;;5033068;28;20402;-74
2021/12/18 07:15:23;;;;;;;37.47;16.10;;;8.20;95.50;;;;;;5042118;28;20856;-74
2021/12/18 07:17:48;;;;;;;41.23;17.57;;;8.10;98.80;;;;;;5024570;28;20415;-73
2021/12/18 07:20:14;;;;;;;39.30;17.83;;;8.10;99.90;;;;;;5030141;28;20405;-75
2021/12/18 07:22:40;;;;;;;37.73;16.20;;;8.10;99.90;;;;;;5031668;28;20422;-74
2021/12/18 07:25:06;;;;;;;36.03;15.10;;;8.10;99.90;;;;;;5033713;28;20402;-74
2021/12/18 07:27:32;;;;;;;41.25;15.93;;;8.00;99.90;;;;;;5031397;28;20410;-74
2021/12/18 07:29:58;;;;;;;39.45;16.05;;;8.10;99.90;;;;;;5013975;28;20428;-74
2021/12/18 07:32:24;;;;;;;39.43;16.70;;;8.10;99.90;;;;;;5015062;28;22177;-72
2021/12/18 07:34:49;;;;;;;35.77;15.00;;;8.10;99.90;;;;;;5014646;28;20421;-74
2021/12/18 07:37:15;;;;;;;37.73;15.83;;;8.20;99.70;;;;;;5023344;28;20398;-73
2021/12/18 07:39:41;;;;;;;38.20;16.00;;;8.30;99.40;;;;;;5027406;28;20430;-72
2021/12/18 07:42:06;;;;;;;43.20;16.40;;;8.10;99.90;;;;;;5020546;28;20804;-73
2021/12/18 07:44:32;;;;;;;35.38;15.27;;;8.10;99.90;;;;;;5030726;28;20525;-72
2021/12/18 07:46:57;;;;;;;36.60;15.57;;;8.10;99.90;;;;;;5031692;28;20488;-73
2021/12/18 07:49:23;;;;;;;41.40;15.87;;;8.00;99.90;;;;;;5024998;28;20437;-73
2021/12/18 07:51:48;;;;;;;43.80;16.70;;;8.00;99.90;;;;;;5022313;28;20426;-73
2021/12/18 07:54:14;;;;;;;39.20;16.63;;;8.10;99.90;;;;;;5029102;28;20956;-73
2021/12/18 07:56:40;;;;;;;38.23;17.30;;;8.20;99.90;;;;;;5033078;28;20502;-74
2021/12/18 07:59:05;;;;;;;39.93;15.30;;;8.30;99.90;;;;;;5024534;28;20404;-73
2021/12/18 08:01:31;;;;;;;35.80;15.87;;;8.30;99.60;;;;;;5027006;28;20414;-76
2021/12/18 08:03:57;;;;;;;37.90;16.35;;;8.40;97.90;;;;;;5023484;28;20430;-75
2021/12/18 08:06:22;;;;;;;37.10;16.35;;;8.30;96.60;;;;;;5033557;28;20402;-76
2021/12/18 08:08:48;;;;;;;42.13;15.90;;;8.30;94.80;;;;;;5023153;28;20420;-74
2021/12/18 08:11:15;;;;;;;37.50;15.50;;;8.30;96.30;;;;;;5033214;28;20458;-74
2021/12/18 08:13:41;;;;;;;40.67;17.30;;;8.40;96.50;;;;;;5019901;28;20640;-76
2021/12/18 08:16:07;;;;;;;41.45;17.13;;;8.40;94.50;;;;;;5026933;28;20431;-74
2021/12/18 08:18:32;;;;;;;43.58;17.75;;;8.40;95.00;;;;;;5018883;28;20930;-74
2021/12/18 08:20:58;;;;;;;42.00;16.92;;;8.40;95.50;;;;;;5024228;28;20403;-75
2021/12/18 08:23:24;;;;;;;40.63;17.50;;;8.40;95.40;;;;;;5026806;28;20809;-75
2021/12/18 08:25:50;;;;;;;49.90;18.60;;;8.50;94.80;;;;;;5024231;28;20414;-76
2021/12/18 08:28:16;;;;;;;46.50;18.45;;;8.40;94.30;;;;;;5025233;28;20460;-74
2021/12/18 08:30:43;;;;;;;45.13;17.95;;;8.40;96.10;;;;;;5030610;28;20417;-74
2021/12/18 08:33:09;;;;;;;48.70;19.27;;;8.30;97.60;;;;;;5027890;28;20478;-74
2021/12/18 08:35:35;;;;;;;45.53;18.38;;;8.30;96.50;;;;;;5029175;28;20403;-75
2021/12/18 08:38:03;;;;;;;53.80;19.25;;;8.40;97.60;;;;;;5025830;28;20387;-75
2021/12/18 08:40:30;;;;;;;52.28;19.52;;;8.40;98.40;;;;;;5023594;28;20398;-75
2021/12/18 08:42:56;;;;;;;49.50;19.77;;;8.40;97.30;;;;;;5030805;28;20482;-74
2021/12/18 08:45:22;;;;;;;53.20;19.77;;;8.40;97.80;;;;;;5027650;28;20490;-74
2021/12/18 08:47:48;;;;;;;51.88;19.83;;;8.40;97.40;;;;;;5024407;28;20412;-74
2021/12/18 08:50:17;;;;;;;51.10;19.83;;;8.40;97.90;;;;;;5030309;28;20472;-75
2021/12/18 08:52:43;;;;;;;49.10;19.75;;;8.40;97.40;;;;;;5028217;28;20961;-76
2021/12/18 08:55:10;;;;;;;47.97;19.88;;;8.40;97.10;;;;;;5030674;28;20410;-76
2021/12/18 08:57:35;;;;;;;51.67;20.48;;;8.50;95.90;;;;;;5027605;28;20393;-75
2021/12/18 09:00:03;;;;;;;49.78;20.40;;;8.50;97.60;;;;;;5038644;28;20430;-76
2021/12/18 09:02:28;;;;;;;50.85;20.08;;;8.60;96.10;;;;;;5036800;28;20468;-77
2021/12/18 09:04:54;;;;;;;52.77;20.57;;;8.70;96.00;;;;;;5038059;28;20440;-74
2021/12/18 09:07:19;;;;;;;58.37;20.13;;;8.70;95.60;;;;;;5038563;28;20407;-75
2021/12/18 09:09:46;;;;;;;54.47;21.00;;;8.70;95.40;;;;;;5025924;28;20411;-75
2021/12/18 09:12:12;;;;;;;54.33;20.17;;;8.70;95.80;;;;;;5028348;28;20773;-74
2021/12/18 09:14:39;;;;;;;57.60;21.60;;;8.70;96.60;;;;;;5022710;28;20400;-75
2021/12/18 09:17:05;;;;;;;50.00;19.83;;;8.70;97.10;;;;;;5019130;28;20400;-75
2021/12/18 09:19:31;;;;;;;59.47;20.40;;;8.70;97.80;;;;;;5023831;28;20399;-75
2021/12/18 09:21:58;;;;;;;56.78;21.08;;;8.80;96.60;;;;;;5032355;28;20414;-72
2021/12/18 09:24:24;;;;;;;62.90;20.17;;;8.70;95.90;;;;;;5032287;28;20474;-73
2021/12/18 09:26:49;;;;;;;47.50;20.00;;;8.80;93.70;;;;;;5030315;28;20434;-73
2021/12/18 09:29:15;;;;;;;53.47;21.67;;;8.80;93.30;;;;;;5031548;28;20449;-72
2021/12/18 09:31:40;;;;;;;52.73;20.77;;;8.80;93.30;;;;;;5032034;28;20395;-71
2021/12/18 09:34:06;;;;;;;58.80;22.90;;;8.70;93.40;;;;;;5031331;28;20836;-73
2021/12/18 09:36:32;;;;;;;56.27;21.90;;;8.70;96.20;;;;;;5031019;28;20407;-75
2021/12/18 09:38:57;;;;;;;52.03;20.52;;;8.70;96.90;;;;;;5031785;28;21026;-74
2021/12/18 09:41:24;;;;;;;54.92;21.55;;;8.90;95.60;;;;;;5027779;28;20811;-75
2021/12/18 09:43:50;;;;;;;58.83;22.10;;;8.90;94.30;;;;;;5031234;28;20490;-74
2021/12/18 09:46:15;;;;;;;57.13;23.00;;;8.90;94.40;;;;;;5030168;28;20868;-74
2021/12/18 09:48:44;;;;;;;60.35;23.95;;;8.90;96.30;;;;;;5030273;28;20807;-74
2021/12/18 09:51:20;;;;;;;56.22;23.67;;;9.00;91.60;;;;;;5031879;28;20478;-75
2021/12/18 09:53:47;;;;;;;57.28;25.08;;;8.90;91.60;;;;;;5046610;28;20426;-74
2021/12/18 09:56:13;;;;;;;57.00;25.08;;;8.70;94.60;;;;;;5044472;28;20831;-74
2021/12/18 09:58:38;;;;;;;65.97;25.33;;;8.70;96.50;;;;;;5031069;28;20395;-73
2021/12/18 10:01:04;;;;;;;59.05;25.90;;;8.80;94.20;;;;;;5032896;28;20384;-74
2021/12/18 10:03:42;;;;;;;61.90;26.45;;;9.00;93.50;;;;;;5044559;28;20402;-73
2021/12/18 10:06:45;;;;;;;69.75;30.35;;;9.10;90.80;;;;;;5039145;28;20399;-74
2021/12/18 10:09:16;;;;;;;73.20;31.05;;;9.20;89.40;;;;;;5032096;28;20448;-73
2021/12/18 10:11:48;;;;;;;76.50;33.88;;;8.90;89.30;;;;;;5032065;28;20387;-73
2021/12/18 10:14:14;;;;;;;71.77;33.57;;;9.00;87.90;;;;;;5031249;28;20870;-74
2021/12/18 10:16:49;;;;;;;80.88;35.17;;;9.00;87.40;;;;;;5027038;28;20412;-75
2021/12/18 10:19:28;;;;;;;77.63;34.17;;;8.90;86.40;;;;;;5030982;28;20793;-75
2021/12/18 10:22:04;;;;;;;87.63;36.55;;;8.60;90.40;;;;;;5027832;28;20409;-73
2021/12/18 10:24:32;;;;;;;91.32;36.08;;;8.40;92.40;;;;;;5027446;28;20403;-75
2021/12/18 10:26:58;;;;;;;85.10;35.33;;;8.40;95.40;;;;;;5029585;28;20487;-74
2021/12/18 10:29:34;;;;;;;82.15;34.80;;;8.30;95.50;;;;;;5028567;28;20406;-74
2021/12/18 10:32:09;;;;;;;72.20;32.65;;;8.50;94.20;;;;;;5024655;28;20397;-74
2021/12/18 10:34:36;;;;;;;77.28;33.67;;;8.60;91.00;;;;;;5023587;28;20502;-74
2021/12/18 10:37:08;;;;;;;79.00;34.07;;;8.50;92.10;;;;;;5027790;28;20453;-73
2021/12/18 10:39:36;;;;;;;71.67;33.43;;;8.50;91.20;;;;;;5023115;28;20461;-74
2021/12/18 10:42:34;;;;;;;70.70;32.90;;;8.50;90.50;;;;;;5028721;28;20386;-73
2021/12/18 10:44:59;;;;;;;76.85;34.10;;;8.50;91.20;;;;;;5034292;28;20449;-75
2021/12/18 10:47:26;;;;;;;76.80;32.60;;;8.50;89.20;;;;;;5031069;28;20399;-75
2021/12/18 10:49:52;;;;;;;77.47;32.25;;;8.50;90.80;;;;;;5025481;28;20443;-76
2021/12/18 10:52:34;;;;;;;76.45;33.15;;;8.50;90.30;;;;;;5030113;28;20891;-74
2021/12/18 10:55:04;;;;;;;72.97;32.33;;;8.50;89.90;;;;;;5026909;28;20419;-74
2021/12/18 10:57:30;;;;;;;70.50;32.13;;;8.60;89.30;;;;;;5031146;28;20381;-74
2021/12/18 10:59:57;;;;;;;72.00;31.63;;;8.70;87.60;;;;;;5028349;28;20491;-74
2021/12/18 11:02:25;;;;;;;78.32;33.10;;;8.60;88.20;;;;;;5032969;28;20399;-75
2021/12/18 11:04:51;;;;;;;84.57;35.30;;;8.40;89.80;;;;;;5033366;28;20491;-73
2021/12/18 11:07:28;;;;;;;76.75;33.63;;;8.30;92.40;;;;;;5034085;28;20887;-74
2021/12/18 11:10:40;;;;;;;75.10;33.10;;;8.50;89.80;;;;;;5033053;28;20427;-75
2021/12/18 11:15:30;;;;;;;77.90;33.83;;;8.40;91.40;;;;;;5030625;28;20406;-74
2021/12/18 11:17:56;;;;;;;76.82;33.10;;;8.30;92.70;;;;;;5028959;28;20391;-74
2021/12/18 11:20:22;;;;;;;76.82;31.20;;;8.40;92.00;;;;;;5016885;28;20401;-74
2021/12/18 11:22:54;;;;;;;69.13;29.10;;;8.60;90.40;;;;;;5024245;28;20428;-74
2021/12/18 11:25:22;;;;;;;70.95;30.23;;;8.70;83.60;;;;;;5026695;28;20635;-75
2021/12/18 11:27:50;;;;;;;69.75;30.35;;;8.70;83.60;;;;;;5034445;28;20434;-77
2021/12/18 11:30:17;;;;;;;77.57;31.48;;;8.60;85.50;;;;;;5024748;28;20896;-74
2021/12/18 11:32:46;;;;;;;84.90;31.45;;;8.60;88.40;;;;;;5034353;28;20403;-74
2021/12/18 11:35:19;;;;;;;73.43;30.50;;;8.60;89.40;;;;;;5034163;28;20883;-76
2021/12/18 11:37:50;;;;;;;69.80;31.05;;;8.60;88.40;;;;;;5033945;28;20427;-75
2021/12/18 11:40:20;;;;;;;74.93;30.00;;;8.50;89.30;;;;;;5031175;28;20391;-76
2021/12/18 11:42:45;;;;;;;75.82;31.60;;;8.60;88.70;;;;;;5035080;28;20387;-75
2021/12/18 11:45:11;;;;;;;70.93;30.60;;;8.60;89.30;;;;;;5033483;28;20845;-74
2021/12/18 11:48:00;;;;;;;60.45;28.40;;;8.80;86.30;;;;;;5033468;28;20410;-74
2021/12/18 11:50:31;;;;;;;73.25;29.77;;;9.10;78.80;;;;;;5021154;28;20763;-73
2021/12/18 11:53:09;;;;;;;72.05;30.67;;;8.70;82.30;;;;;;5017660;28;20516;-74
2021/12/18 11:55:37;;;;;;;69.55;30.08;;;8.70;84.90;;;;;;5018108;28;20403;-75
2021/12/18 11:58:13;;;;;;;68.70;31.27;;;8.90;82.50;;;;;;5030061;28;20511;-75
2021/12/18 12:00:43;;;;;;;76.97;30.40;;;8.80;82.90;;;;;;5033283;28;20490;-75
2021/12/18 12:03:10;;;;;;;72.75;30.10;;;8.80;85.00;;;;;;5027103;28;20393;-74
2021/12/18 12:05:46;;;;;;;83.75;32.25;;;8.70;87.00;;;;;;5029231;28;20875;-73
2021/12/18 12:08:37;;;;;;;76.18;31.00;;;8.60;89.70;;;;;;5030363;28;20422;-76
2021/12/18 12:11:25;;;;;;;80.88;32.63;;;8.60;91.40;;;;;;5029292;28;20407;-75
2021/12/18 12:14:04;;;;;;;91.13;36.80;;;8.50;92.10;;;;;;5031817;28;20402;-78
2021/12/18 12:16:48;;;;;;;93.30;34.15;;;8.50;94.50;;;;;;5030018;28;20461;-76
2021/12/18 12:19:18;;;;;;;87.15;34.38;;;8.90;86.70;;;;;;5030749;28;20490;-75
2021/12/18 12:21:49;;;;;;;84.28;34.75;;;8.80;87.60;;;;;;5031992;28;20494;-77
2021/12/18 12:24:17;;;;;;;78.87;33.27;;;8.80;90.30;;;;;;5030528;28;20403;-75
2021/12/18 12:26:44;;;;;;;75.90;31.27;;;9.00;85.80;;;;;;5028005;28;20399;-75
2021/12/18 12:29:13;;;;;;;72.55;29.65;;;9.00;84.60;;;;;;5032446;28;20482;-74
2021/12/18 12:31:58;;;;;;;83.63;31.23;;;9.00;82.30;;;;;;5031178;28;20395;-75
2021/12/18 12:34:31;;;;;;;77.32;30.92;;;8.90;81.70;;;;;;5026419;28;20413;-75
2021/12/18 12:37:17;;;;;;;66.65;29.88;;;8.90;86.90;;;;;;5038689;28;20434;-75
2021/12/18 12:40:08;;;;;;;60.47;26.20;;;8.90;86.40;;;;;;5055247;28;20506;-75
2021/12/18 12:42:34;;;;;;;58.73;23.90;;;9.10;81.40;;;;;;5027794;28;20479;-76
2021/12/18 12:45:08;;;;;;;58.88;24.25;;;9.10;80.80;;;;;;5032525;28;20391;-75
2021/12/18 12:47:34;;;;;;;71.95;27.65;;;9.00;81.90;;;;;;5032775;28;20746;-75
2021/12/18 12:50:20;;;;;;;64.43;28.10;;;9.00;84.40;;;;;;5030961;28;20387;-74
2021/12/18 12:52:54;;;;;;;74.15;30.23;;;9.00;83.70;;;;;;5030712;28;20533;-75
2021/12/18 12:55:22;;;;;;;75.30;30.30;;;8.90;84.60;;;;;;5024227;28;20468;-75
2021/12/18 12:57:56;;;;;;;95.75;32.88;;;8.70;89.30;;;;;;5032720;28;20433;-77
2021/12/18 13:00:23;;;;;;;90.35;33.50;;;8.60;91.50;;;;;;5031608;28;20399;-74
2021/12/18 13:02:56;;;;;;;98.30;33.85;;;8.60;92.20;;;;;;5032319;28;20391;-78
2021/12/18 13:05:23;;;;;;;93.90;34.10;;;8.60;94.30;;;;;;5040738;28;20410;-74
2021/12/18 13:07:55;;;;;;;93.88;33.70;;;8.70;94.60;;;;;;5031129;28;20604;-75
2021/12/18 13:10:36;;;;;;;82.72;31.88;;;8.70;90.50;;;;;;5032795;28;20383;-74
2021/12/18 13:13:08;;;;;;;89.57;33.60;;;8.80;88.40;;;;;;5027169;28;20399;-74
2021/12/18 13:16:01;;;;;;;94.50;33.60;;;8.60;91.40;;;;;;5031227;28;20414;-74
2021/12/18 13:18:40;;;;;;;111.35;36.80;;;8.70;94.00;;;;;;5031440;28;20422;-74
2021/12/18 13:21:14;;;;;;;103.90;34.97;;;8.60;94.50;;;;;;5030909;28;20502;-74
2021/12/18 13:23:39;;;;;;;110.78;37.13;;;8.60;96.00;;;;;;5030997;28;20372;-74
2021/12/18 13:26:08;;;;;;;97.95;33.85;;;8.80;93.90;;;;;;5031275;28;20780;-75
2021/12/18 13:28:34;;;;;;;80.90;30.43;;;8.80;95.20;;;;;;5031726;28;20455;-74
2021/12/18 13:31:00;;;;;;;92.85;32.60;;;8.90;93.80;;;;;;5020359;28;20421;-75
2021/12/18 13:33:28;;;;;;;83.50;31.17;;;9.20;93.10;;;;;;5011557;28;20439;-75